sensor_id;sensor_type;location;lat;lon;timestamp;P1;durP1;ratioP1;P2;durP2;ratioP2
76953;SDS011;65893;51.698;-0.292;2023-11-18T00:00:59;14.15;;;2.50;;
76953;SDS011;65893;51.698;-0.292;2023-11-18T00:03:27;9.20;;;1.77;;
76953;SDS011;65893;51.698;-0.292;2023-11-18T00:06:00;3.80;;;1.48;;
76953;SDS011;65893;51.698;-0.292;2023-11-18T00:08:26;10.02;;;1.40;;
76953;SDS011;65893;51.698;-0.292;2023-11-18T00:13:26;8.48;;;1.52;;
76953;SDS011;65893;51.698;-0.292;2023-11-18T00:15:53;4.88;;;1.33;;
76953;SDS011;65893;51.698;-0.292;2023-11-18T00:18:20;16.65;;;3.13;;
76953;SDS011;65893;51.698;-0.292;2023-11-18T00:20:46;8.75;;;2.30;;
76953;SDS011;65893;51.698;-0.292;2023-11-18T00:23:12;10.23;;;2.15;;
76953;SDS011;65893;51.698;-0.292;2023-11-18T00:25:39;11.30;;;2.42;;
76953;SDS011;65893;51.698;-0.292;2023-11-18T00:28:07;8.90;;;1.88;;
76953;SDS011;65893;51.698;-0.292;2023-11-18T00:30:34;17.17;;;2.63;;
76953;SDS011;65893;51.698;-0.292;2023-11-18T00:33:00;10.07;;;1.75;;
76953;SDS011;65893;51.698;-0.292;2023-11-18T00:35:27;14.50;;;2.67;;
76953;SDS011;65893;51.698;-0.292;2023-11-18T00:37:58;11.88;;;2.50;;
76953;SDS011;65893;51.698;-0.292;2023-11-18T00:40:26;6.65;;;1.85;;
76953;SDS011;65893;51.698;-0.292;2023-11-18T00:42:56;9.30;;;2.00;;
76953;SDS011;65893;51.698;-0.292;2023-11-18T00:45:22;10.70;;;2.70;;
76953;SDS011;65893;51.698;-0.292;2023-11-18T00:47:48;7.57;;;2.03;;
76953;SDS011;65893;51.698;-0.292;2023-11-18T00:50:16;13.80;;;2.22;;
76953;SDS011;65893;51.698;-0.292;2023-11-18T00:52:42;8.77;;;1.45;;
76953;SDS011;65893;51.698;-0.292;2023-11-18T00:55:08;10.32;;;1.95;;
76953;SDS011;65893;51.698;-0.292;2023-11-18T00:57:36;5.85;;;1.70;;
76953;SDS011;65893;51.698;-0.292;2023-11-18T01:00:06;8.98;;;1.45;;
76953;SDS011;65893;51.698;-0.292;2023-11-18T01:02:36;6.95;;;1.65;;
76953;SDS011;65893;51.698;-0.292;2023-11-18T01:05:03;3.83;;;1.52;;
76953;SDS011;65893;51.698;-0.292;2023-11-18T01:07:30;9.13;;;1.67;;
76953;SDS011;65893;51.698;-0.292;2023-11-18T01:09:56;8.05;;;1.67;;
76953;SDS011;65893;51.698;-0.292;2023-11-18T01:12:22;7.38;;;1.27;;
76953;SDS011;65893;51.698;-0.292;2023-11-18T01:14:49;8.02;;;1.00;;
76953;SDS011;65893;51.698;-0.292;2023-11-18T01:17:15;9.07;;;1.80;;
76953;SDS011;65893;51.698;-0.292;2023-11-18T01:19:43;6.68;;;1.58;;
76953;SDS011;65893;51.698;-0.292;2023-11-18T01:22:10;4.30;;;1.23;;
76953;SDS011;65893;51.698;-0.292;2023-11-18T01:24:38;6.97;;;1.48;;
76953;SDS011;65893;51.698;-0.292;2023-11-18T01:27:06;6.60;;;1.33;;
76953;SDS011;65893;51.698;-0.292;2023-11-18T01:29:37;7.25;;;1.23;;
76953;SDS011;65893;51.698;-0.292;2023-11-18T01:32:06;6.10;;;1.30;;
76953;SDS011;65893;51.698;-0.292;2023-11-18T01:34:44;7.40;;;1.20;;
76953;SDS011;65893;51.698;-0.292;2023-11-18T01:37:15;5.90;;;1.02;;
76953;SDS011;65893;51.698;-0.292;2023-11-18T01:42:14;3.70;;;1.00;;
76953;SDS011;65893;51.698;-0.292;2023-11-18T01:44:40;7.20;;;1.13;;
76953;SDS011;65893;51.698;-0.292;2023-11-18T01:47:07;5.85;;;1.40;;
76953;SDS011;65893;51.698;-0.292;2023-11-18T01:49:38;5.57;;;1.23;;
76953;SDS011;65893;51.698;-0.292;2023-11-18T01:52:07;4.03;;;1.77;;
76953;SDS011;65893;51.698;-0.292;2023-11-18T01:54:34;4.38;;;1.20;;
76953;SDS011;65893;51.698;-0.292;2023-11-18T01:57:05;9.30;;;2.10;;
76953;SDS011;65893;51.698;-0.292;2023-11-18T02:04:41;9.00;;;1.80;;
76953;SDS011;65893;51.698;-0.292;2023-11-18T02:07:10;12.40;;;1.60;;
76953;SDS011;65893;51.698;-0.292;2023-11-18T02:09:37;4.95;;;1.40;;
76953;SDS011;65893;51.698;-0.292;2023-11-18T02:14:34;5.47;;;1.80;;
76953;SDS011;65893;51.698;-0.292;2023-11-18T02:17:03;9.32;;;2.42;;
76953;SDS011;65893;51.698;-0.292;2023-11-18T02:19:32;4.70;;;1.30;;
76953;SDS011;65893;51.698;-0.292;2023-11-18T02:21:59;8.93;;;1.67;;
76953;SDS011;65893;51.698;-0.292;2023-11-18T02:24:29;7.00;;;1.60;;
76953;SDS011;65893;51.698;-0.292;2023-11-18T02:26:58;8.77;;;1.73;;
76953;SDS011;65893;51.698;-0.292;2023-11-18T02:29:25;8.57;;;2.15;;
76953;SDS011;65893;51.698;-0.292;2023-11-18T02:31:52;9.73;;;2.20;;
76953;SDS011;65893;51.698;-0.292;2023-11-18T02:34:22;5.05;;;1.98;;
76953;SDS011;65893;51.698;-0.292;2023-11-18T02:36:51;7.70;;;1.75;;
76953;SDS011;65893;51.698;-0.292;2023-11-18T02:39:24;12.25;;;2.15;;
76953;SDS011;65893;51.698;-0.292;2023-11-18T02:41:54;8.55;;;1.90;;
76953;SDS011;65893;51.698;-0.292;2023-11-18T02:44:21;10.13;;;2.13;;
76953;SDS011;65893;51.698;-0.292;2023-11-18T02:46:49;12.35;;;1.80;;
76953;SDS011;65893;51.698;-0.292;2023-11-18T02:49:16;15.63;;;2.60;;
76953;SDS011;65893;51.698;-0.292;2023-11-18T02:51:43;7.50;;;1.90;;
76953;SDS011;65893;51.698;-0.292;2023-11-18T02:54:12;12.40;;;1.70;;
76953;SDS011;65893;51.698;-0.292;2023-11-18T02:56:38;6.30;;;1.73;;
76953;SDS011;65893;51.698;-0.292;2023-11-18T02:59:05;5.70;;;1.85;;
76953;SDS011;65893;51.698;-0.292;2023-11-18T03:01:32;14.77;;;2.85;;
76953;SDS011;65893;51.698;-0.292;2023-11-18T03:03:59;8.02;;;2.33;;
76953;SDS011;65893;51.698;-0.292;2023-11-18T03:06:25;9.45;;;2.80;;
76953;SDS011;65893;51.698;-0.292;2023-11-18T03:08:51;7.32;;;1.95;;
76953;SDS011;65893;51.698;-0.292;2023-11-18T03:11:19;10.88;;;2.10;;
76953;SDS011;65893;51.698;-0.292;2023-11-18T03:13:45;14.18;;;3.47;;
76953;SDS011;65893;51.698;-0.292;2023-11-18T03:16:11;9.45;;;2.38;;
76953;SDS011;65893;51.698;-0.292;2023-11-18T03:18:41;12.02;;;2.63;;
76953;SDS011;65893;51.698;-0.292;2023-11-18T03:21:14;12.23;;;2.50;;
76953;SDS011;65893;51.698;-0.292;2023-11-18T03:23:40;9.98;;;2.72;;
76953;SDS011;65893;51.698;-0.292;2023-11-18T03:26:07;10.18;;;2.60;;
76953;SDS011;65893;51.698;-0.292;2023-11-18T03:28:33;11.10;;;2.75;;
76953;SDS011;65893;51.698;-0.292;2023-11-18T03:31:01;6.78;;;2.13;;
76953;SDS011;65893;51.698;-0.292;2023-11-18T03:33:28;9.52;;;3.75;;
76953;SDS011;65893;51.698;-0.292;2023-11-18T03:35:55;12.43;;;2.92;;
76953;SDS011;65893;51.698;-0.292;2023-11-18T03:38:21;5.72;;;2.42;;
76953;SDS011;65893;51.698;-0.292;2023-11-18T03:40:47;14.40;;;2.60;;
76953;SDS011;65893;51.698;-0.292;2023-11-18T03:43:13;5.70;;;2.50;;
76953;SDS011;65893;51.698;-0.292;2023-11-18T03:45:40;9.68;;;2.72;;
76953;SDS011;65893;51.698;-0.292;2023-11-18T03:48:06;6.53;;;2.45;;
76953;SDS011;65893;51.698;-0.292;2023-11-18T03:50:33;6.50;;;2.15;;
76953;SDS011;65893;51.698;-0.292;2023-11-18T03:52:59;5.90;;;2.15;;
76953;SDS011;65893;51.698;-0.292;2023-11-18T03:55:26;7.95;;;2.15;;
76953;SDS011;65893;51.698;-0.292;2023-11-18T03:57:52;6.38;;;2.15;;
76953;SDS011;65893;51.698;-0.292;2023-11-18T04:00:19;12.35;;;3.03;;
76953;SDS011;65893;51.698;-0.292;2023-11-18T04:02:45;9.35;;;2.05;;
76953;SDS011;65893;51.698;-0.292;2023-11-18T04:05:12;10.15;;;2.20;;
76953;SDS011;65893;51.698;-0.292;2023-11-18T04:07:38;7.47;;;3.05;;
76953;SDS011;65893;51.698;-0.292;2023-11-18T04:10:06;7.55;;;2.22;;
76953;SDS011;65893;51.698;-0.292;2023-11-18T04:12:36;6.18;;;2.00;;
76953;SDS011;65893;51.698;-0.292;2023-11-18T04:15:03;7.28;;;1.95;;
76953;SDS011;65893;51.698;-0.292;2023-11-18T04:17:30;4.97;;;1.88;;
76953;SDS011;65893;51.698;-0.292;2023-11-18T04:19:56;6.80;;;2.40;;
76953;SDS011;65893;51.698;-0.292;2023-11-18T04:22:22;8.93;;;1.55;;
76953;SDS011;65893;51.698;-0.292;2023-11-18T04:24:48;6.60;;;1.60;;
76953;SDS011;65893;51.698;-0.292;2023-11-18T04:27:15;4.32;;;1.48;;
76953;SDS011;65893;51.698;-0.292;2023-11-18T04:29:41;5.22;;;1.77;;
76953;SDS011;65893;51.698;-0.292;2023-11-18T04:32:07;5.43;;;1.50;;
76953;SDS011;65893;51.698;-0.292;2023-11-18T04:34:36;5.75;;;1.88;;
76953;SDS011;65893;51.698;-0.292;2023-11-18T04:37:06;6.55;;;2.33;;
76953;SDS011;65893;51.698;-0.292;2023-11-18T04:39:32;7.18;;;1.55;;
76953;SDS011;65893;51.698;-0.292;2023-11-18T04:41:58;6.20;;;1.85;;
76953;SDS011;65893;51.698;-0.292;2023-11-18T04:44:26;7.55;;;1.85;;
76953;SDS011;65893;51.698;-0.292;2023-11-18T04:46:52;6.75;;;1.33;;
76953;SDS011;65893;51.698;-0.292;2023-11-18T04:49:18;5.82;;;1.60;;
76953;SDS011;65893;51.698;-0.292;2023-11-18T04:51:44;4.35;;;1.17;;
76953;SDS011;65893;51.698;-0.292;2023-11-18T04:54:10;5.10;;;1.80;;
76953;SDS011;65893;51.698;-0.292;2023-11-18T04:56:37;10.45;;;1.77;;
76953;SDS011;65893;51.698;-0.292;2023-11-18T04:59:03;6.93;;;1.38;;
76953;SDS011;65893;51.698;-0.292;2023-11-18T05:01:30;7.43;;;1.73;;
76953;SDS011;65893;51.698;-0.292;2023-11-18T05:03:56;5.18;;;1.52;;
76953;SDS011;65893;51.698;-0.292;2023-11-18T05:06:22;6.18;;;1.67;;
76953;SDS011;65893;51.698;-0.292;2023-11-18T05:08:49;6.97;;;1.73;;
76953;SDS011;65893;51.698;-0.292;2023-11-18T05:11:15;6.95;;;1.92;;
76953;SDS011;65893;51.698;-0.292;2023-11-18T05:13:41;6.55;;;1.88;;
76953;SDS011;65893;51.698;-0.292;2023-11-18T05:16:07;7.55;;;1.80;;
76953;SDS011;65893;51.698;-0.292;2023-11-18T05:18:35;5.05;;;1.08;;
76953;SDS011;65893;51.698;-0.292;2023-11-18T05:21:02;3.97;;;1.58;;
76953;SDS011;65893;51.698;-0.292;2023-11-18T05:23:31;4.15;;;1.20;;
76953;SDS011;65893;51.698;-0.292;2023-11-18T05:25:59;4.30;;;1.65;;
76953;SDS011;65893;51.698;-0.292;2023-11-18T05:28:25;3.55;;;1.45;;
76953;SDS011;65893;51.698;-0.292;2023-11-18T05:30:51;3.60;;;1.10;;
76953;SDS011;65893;51.698;-0.292;2023-11-18T05:33:17;6.00;;;1.40;;
76953;SDS011;65893;51.698;-0.292;2023-11-18T05:35:45;3.28;;;1.30;;
76953;SDS011;65893;51.698;-0.292;2023-11-18T05:38:17;3.75;;;1.25;;
76953;SDS011;65893;51.698;-0.292;2023-11-18T05:40:48;1.77;;;0.80;;
76953;SDS011;65893;51.698;-0.292;2023-11-18T05:43:30;2.47;;;1.10;;
76953;SDS011;65893;51.698;-0.292;2023-11-18T05:46:13;2.55;;;0.93;;
76953;SDS011;65893;51.698;-0.292;2023-11-18T05:48:50;2.67;;;0.88;;
76953;SDS011;65893;51.698;-0.292;2023-11-18T05:51:27;5.47;;;1.35;;
76953;SDS011;65893;51.698;-0.292;2023-11-18T05:53:54;4.97;;;1.20;;
76953;SDS011;65893;51.698;-0.292;2023-11-18T05:56:20;1.50;;;0.80;;
76953;SDS011;65893;51.698;-0.292;2023-11-18T05:58:50;7.07;;;1.27;;
76953;SDS011;65893;51.698;-0.292;2023-11-18T06:01:19;3.65;;;1.10;;
76953;SDS011;65893;51.698;-0.292;2023-11-18T06:03:46;5.38;;;1.15;;
76953;SDS011;65893;51.698;-0.292;2023-11-18T06:06:12;6.00;;;1.15;;
76953;SDS011;65893;51.698;-0.292;2023-11-18T06:08:46;2.50;;;0.82;;
76953;SDS011;65893;51.698;-0.292;2023-11-18T06:11:14;5.13;;;1.08;;
76953;SDS011;65893;51.698;-0.292;2023-11-18T06:13:44;5.43;;;1.10;;
76953;SDS011;65893;51.698;-0.292;2023-11-18T06:16:16;3.80;;;1.48;;
76953;SDS011;65893;51.698;-0.292;2023-11-18T06:18:43;2.63;;;1.17;;
76953;SDS011;65893;51.698;-0.292;2023-11-18T06:21:16;2.92;;;1.10;;
76953;SDS011;65893;51.698;-0.292;2023-11-18T06:23:46;3.05;;;1.00;;
76953;SDS011;65893;51.698;-0.292;2023-11-18T06:26:13;3.50;;;1.20;;
76953;SDS011;65893;51.698;-0.292;2023-11-18T06:28:40;3.83;;;1.10;;
76953;SDS011;65893;51.698;-0.292;2023-11-18T06:31:08;3.80;;;1.27;;
76953;SDS011;65893;51.698;-0.292;2023-11-18T06:33:41;2.53;;;0.80;;
76953;SDS011;65893;51.698;-0.292;2023-11-18T06:38:37;2.90;;;1.00;;
76953;SDS011;65893;51.698;-0.292;2023-11-18T06:41:03;3.42;;;0.88;;
76953;SDS011;65893;51.698;-0.292;2023-11-18T06:43:30;3.70;;;1.42;;
76953;SDS011;65893;51.698;-0.292;2023-11-18T06:46:11;2.75;;;0.80;;
76953;SDS011;65893;51.698;-0.292;2023-11-18T06:48:39;2.30;;;0.77;;
76953;SDS011;65893;51.698;-0.292;2023-11-18T06:51:05;4.53;;;0.77;;
76953;SDS011;65893;51.698;-0.292;2023-11-18T06:53:34;2.33;;;0.88;;
76953;SDS011;65893;51.698;-0.292;2023-11-18T06:56:00;0.80;;;0.38;;
76953;SDS011;65893;51.698;-0.292;2023-11-18T06:58:26;3.90;;;0.77;;
76953;SDS011;65893;51.698;-0.292;2023-11-18T07:00:52;1.83;;;0.75;;
76953;SDS011;65893;51.698;-0.292;2023-11-18T07:03:18;1.88;;;1.00;;
76953;SDS011;65893;51.698;-0.292;2023-11-18T07:05:44;3.05;;;0.90;;
76953;SDS011;65893;51.698;-0.292;2023-11-18T07:08:10;5.97;;;1.00;;
76953;SDS011;65893;51.698;-0.292;2023-11-18T07:10:38;2.67;;;0.75;;
76953;SDS011;65893;51.698;-0.292;2023-11-18T07:13:04;2.97;;;0.80;;
76953;SDS011;65893;51.698;-0.292;2023-11-18T07:15:32;1.02;;;0.65;;
76953;SDS011;65893;51.698;-0.292;2023-11-18T07:17:59;2.22;;;0.75;;
76953;SDS011;65893;51.698;-0.292;2023-11-18T07:20:26;4.55;;;0.80;;
76953;SDS011;65893;51.698;-0.292;2023-11-18T07:22:52;3.45;;;0.90;;
76953;SDS011;65893;51.698;-0.292;2023-11-18T07:25:19;1.52;;;0.60;;
76953;SDS011;65893;51.698;-0.292;2023-11-18T07:27:46;4.80;;;0.95;;
76953;SDS011;65893;51.698;-0.292;2023-11-18T07:30:13;1.08;;;0.73;;
76953;SDS011;65893;51.698;-0.292;2023-11-18T07:32:39;4.72;;;0.95;;
76953;SDS011;65893;51.698;-0.292;2023-11-18T07:35:05;1.65;;;0.73;;
76953;SDS011;65893;51.698;-0.292;2023-11-18T07:37:35;2.03;;;0.90;;
76953;SDS011;65893;51.698;-0.292;2023-11-18T07:40:02;2.35;;;0.70;;
76953;SDS011;65893;51.698;-0.292;2023-11-18T07:42:30;15.00;;;1.73;;
76953;SDS011;65893;51.698;-0.292;2023-11-18T07:44:59;2.67;;;0.60;;
76953;SDS011;65893;51.698;-0.292;2023-11-18T07:47:29;1.65;;;0.50;;
76953;SDS011;65893;51.698;-0.292;2023-11-18T07:49:57;4.32;;;0.70;;
76953;SDS011;65893;51.698;-0.292;2023-11-18T07:52:24;32.65;;;2.70;;
76953;SDS011;65893;51.698;-0.292;2023-11-18T07:54:52;2.58;;;0.77;;
76953;SDS011;65893;51.698;-0.292;2023-11-18T07:57:18;1.63;;;0.75;;
76953;SDS011;65893;51.698;-0.292;2023-11-18T07:59:44;2.13;;;0.80;;
76953;SDS011;65893;51.698;-0.292;2023-11-18T08:02:12;5.40;;;0.90;;
76953;SDS011;65893;51.698;-0.292;2023-11-18T08:04:39;1.73;;;0.68;;
76953;SDS011;65893;51.698;-0.292;2023-11-18T08:07:06;5.68;;;1.17;;
76953;SDS011;65893;51.698;-0.292;2023-11-18T08:09:35;3.78;;;1.25;;
76953;SDS011;65893;51.698;-0.292;2023-11-18T08:12:04;3.20;;;0.82;;
76953;SDS011;65893;51.698;-0.292;2023-11-18T08:14:34;2.70;;;0.98;;
76953;SDS011;65893;51.698;-0.292;2023-11-18T08:17:00;3.92;;;1.33;;
76953;SDS011;65893;51.698;-0.292;2023-11-18T08:19:26;6.03;;;1.10;;
76953;SDS011;65893;51.698;-0.292;2023-11-18T08:21:52;2.17;;;1.02;;
76953;SDS011;65893;51.698;-0.292;2023-11-18T08:24:18;2.58;;;0.85;;
76953;SDS011;65893;51.698;-0.292;2023-11-18T08:26:45;1.98;;;0.93;;
76953;SDS011;65893;51.698;-0.292;2023-11-18T08:29:12;4.75;;;0.90;;
76953;SDS011;65893;51.698;-0.292;2023-11-18T08:31:38;2.80;;;1.15;;
76953;SDS011;65893;51.698;-0.292;2023-11-18T08:34:05;2.95;;;0.88;;
76953;SDS011;65893;51.698;-0.292;2023-11-18T08:36:31;6.63;;;1.23;;
76953;SDS011;65893;51.698;-0.292;2023-11-18T08:38:59;3.03;;;1.17;;
76953;SDS011;65893;51.698;-0.292;2023-11-18T08:41:25;4.43;;;1.00;;
76953;SDS011;65893;51.698;-0.292;2023-11-18T08:43:51;5.53;;;1.23;;
76953;SDS011;65893;51.698;-0.292;2023-11-18T08:46:18;20.95;;;1.98;;
76953;SDS011;65893;51.698;-0.292;2023-11-18T08:48:44;2.47;;;0.90;;
76953;SDS011;65893;51.698;-0.292;2023-11-18T08:51:12;3.40;;;1.13;;
76953;SDS011;65893;51.698;-0.292;2023-11-18T08:53:38;2.63;;;0.90;;
76953;SDS011;65893;51.698;-0.292;2023-11-18T08:56:10;6.68;;;1.02;;
76953;SDS011;65893;51.698;-0.292;2023-11-18T08:58:40;3.30;;;1.00;;
76953;SDS011;65893;51.698;-0.292;2023-11-18T09:01:06;11.25;;;1.65;;
76953;SDS011;65893;51.698;-0.292;2023-11-18T09:03:39;6.68;;;1.00;;
76953;SDS011;65893;51.698;-0.292;2023-11-18T09:06:17;6.57;;;1.27;;
76953;SDS011;65893;51.698;-0.292;2023-11-18T09:08:44;2.42;;;0.75;;
76953;SDS011;65893;51.698;-0.292;2023-11-18T09:11:11;1.58;;;0.70;;
76953;SDS011;65893;51.698;-0.292;2023-11-18T09:13:45;2.85;;;0.98;;
76953;SDS011;65893;51.698;-0.292;2023-11-18T09:16:14;16.40;;;1.55;;
76953;SDS011;65893;51.698;-0.292;2023-11-18T09:18:42;2.50;;;1.00;;
76953;SDS011;65893;51.698;-0.292;2023-11-18T09:21:10;3.97;;;0.88;;
76953;SDS011;65893;51.698;-0.292;2023-11-18T09:23:40;1.58;;;0.60;;
76953;SDS011;65893;51.698;-0.292;2023-11-18T09:26:06;3.20;;;0.73;;
76953;SDS011;65893;51.698;-0.292;2023-11-18T09:28:35;1.90;;;0.85;;
76953;SDS011;65893;51.698;-0.292;2023-11-18T09:31:03;20.17;;;2.42;;
76953;SDS011;65893;51.698;-0.292;2023-11-18T09:33:31;4.45;;;0.93;;
76953;SDS011;65893;51.698;-0.292;2023-11-18T09:36:03;1.85;;;0.80;;
76953;SDS011;65893;51.698;-0.292;2023-11-18T09:38:34;2.45;;;0.88;;
76953;SDS011;65893;51.698;-0.292;2023-11-18T09:41:01;4.25;;;0.90;;
76953;SDS011;65893;51.698;-0.292;2023-11-18T09:43:29;5.35;;;0.98;;
76953;SDS011;65893;51.698;-0.292;2023-11-18T09:46:08;4.32;;;0.80;;
76953;SDS011;65893;51.698;-0.292;2023-11-18T09:48:47;1.80;;;0.65;;
76953;SDS011;65893;51.698;-0.292;2023-11-18T09:51:28;3.17;;;0.85;;
76953;SDS011;65893;51.698;-0.292;2023-11-18T09:53:57;2.13;;;0.70;;
76953;SDS011;65893;51.698;-0.292;2023-11-18T09:59:14;5.53;;;1.20;;
76953;SDS011;65893;51.698;-0.292;2023-11-18T10:01:48;11.43;;;1.70;;
76953;SDS011;65893;51.698;-0.292;2023-11-18T10:04:18;3.67;;;1.15;;
76953;SDS011;65893;51.698;-0.292;2023-11-18T10:06:49;2.45;;;0.88;;
76953;SDS011;65893;51.698;-0.292;2023-11-18T10:09:18;5.28;;;1.20;;
76953;SDS011;65893;51.698;-0.292;2023-11-18T10:11:53;4.05;;;1.50;;
76953;SDS011;65893;51.698;-0.292;2023-11-18T10:14:26;3.72;;;1.27;;
76953;SDS011;65893;51.698;-0.292;2023-11-18T10:16:52;4.40;;;1.63;;
76953;SDS011;65893;51.698;-0.292;2023-11-18T10:19:20;6.72;;;1.98;;
76953;SDS011;65893;51.698;-0.292;2023-11-18T10:21:48;5.43;;;1.67;;
76953;SDS011;65893;51.698;-0.292;2023-11-18T10:24:15;5.43;;;2.10;;
76953;SDS011;65893;51.698;-0.292;2023-11-18T10:26:44;8.18;;;2.20;;
76953;SDS011;65893;51.698;-0.292;2023-11-18T10:29:11;6.35;;;2.45;;
76953;SDS011;65893;51.698;-0.292;2023-11-18T10:31:39;31.50;;;3.58;;
76953;SDS011;65893;51.698;-0.292;2023-11-18T10:34:11;5.93;;;2.38;;
76953;SDS011;65893;51.698;-0.292;2023-11-18T10:36:38;7.07;;;2.50;;
76953;SDS011;65893;51.698;-0.292;2023-11-18T10:39:04;7.28;;;2.53;;
76953;SDS011;65893;51.698;-0.292;2023-11-18T10:41:41;64.78;;;7.70;;
76953;SDS011;65893;51.698;-0.292;2023-11-18T10:44:08;11.10;;;2.53;;
76953;SDS011;65893;51.698;-0.292;2023-11-18T10:47:01;8.60;;;2.30;;
76953;SDS011;65893;51.698;-0.292;2023-11-18T10:49:29;6.97;;;2.00;;
76953;SDS011;65893;51.698;-0.292;2023-11-18T10:52:02;9.43;;;1.85;;
76953;SDS011;65893;51.698;-0.292;2023-11-18T10:54:32;3.00;;;1.30;;
76953;SDS011;65893;51.698;-0.292;2023-11-18T10:57:00;5.30;;;1.30;;
76953;SDS011;65893;51.698;-0.292;2023-11-18T10:59:32;17.67;;;2.88;;
76953;SDS011;65893;51.698;-0.292;2023-11-18T11:01:58;9.95;;;1.60;;
76953;SDS011;65893;51.698;-0.292;2023-11-18T11:04:26;3.92;;;1.27;;
76953;SDS011;65893;51.698;-0.292;2023-11-18T11:06:54;4.82;;;1.20;;
76953;SDS011;65893;51.698;-0.292;2023-11-18T11:09:22;7.18;;;1.35;;
76953;SDS011;65893;51.698;-0.292;2023-11-18T11:12:03;5.07;;;1.20;;
76953;SDS011;65893;51.698;-0.292;2023-11-18T11:14:35;3.17;;;1.25;;
76953;SDS011;65893;51.698;-0.292;2023-11-18T11:17:07;8.63;;;1.20;;
76953;SDS011;65893;51.698;-0.292;2023-11-18T11:19:59;3.42;;;1.05;;
76953;SDS011;65893;51.698;-0.292;2023-11-18T11:22:42;6.07;;;1.27;;
76953;SDS011;65893;51.698;-0.292;2023-11-18T11:28:34;9.40;;;1.35;;
76953;SDS011;65893;51.698;-0.292;2023-11-18T11:33:13;7.65;;;1.10;;
76953;SDS011;65893;51.698;-0.292;2023-11-18T11:35:42;2.85;;;1.20;;
76953;SDS011;65893;51.698;-0.292;2023-11-18T11:38:14;3.20;;;0.63;;
76953;SDS011;65893;51.698;-0.292;2023-11-18T11:40:41;2.25;;;0.60;;
76953;SDS011;65893;51.698;-0.292;2023-11-18T11:43:09;5.72;;;0.88;;
76953;SDS011;65893;51.698;-0.292;2023-11-18T11:45:41;4.18;;;0.70;;
76953;SDS011;65893;51.698;-0.292;2023-11-18T11:48:08;2.42;;;0.80;;
76953;SDS011;65893;51.698;-0.292;2023-11-18T11:50:55;5.97;;;0.90;;
76953;SDS011;65893;51.698;-0.292;2023-11-18T11:53:25;3.75;;;0.85;;
76953;SDS011;65893;51.698;-0.292;2023-11-18T11:55:54;2.42;;;0.88;;
76953;SDS011;65893;51.698;-0.292;2023-11-18T12:01:41;3.00;;;1.02;;
76953;SDS011;65893;51.698;-0.292;2023-11-18T12:03:43;2.40;;;0.82;;
76953;SDS011;65893;51.698;-0.292;2023-11-18T12:06:13;9.18;;;1.25;;
76953;SDS011;65893;51.698;-0.292;2023-11-18T12:08:41;2.88;;;0.75;;
76953;SDS011;65893;51.698;-0.292;2023-11-18T12:11:09;3.80;;;0.75;;
76953;SDS011;65893;51.698;-0.292;2023-11-18T12:13:37;1.25;;;0.60;;
76953;SDS011;65893;51.698;-0.292;2023-11-18T12:16:11;3.65;;;0.80;;
76953;SDS011;65893;51.698;-0.292;2023-11-18T12:18:41;1.67;;;0.55;;
76953;SDS011;65893;51.698;-0.292;2023-11-18T12:21:10;1.48;;;0.80;;
76953;SDS011;65893;51.698;-0.292;2023-11-18T12:26:39;2.88;;;0.90;;
76953;SDS011;65893;51.698;-0.292;2023-11-18T12:29:29;2.97;;;0.85;;
76953;SDS011;65893;51.698;-0.292;2023-11-18T12:31:53;5.70;;;1.17;;
76953;SDS011;65893;51.698;-0.292;2023-11-18T12:34:19;21.70;;;1.95;;
76953;SDS011;65893;51.698;-0.292;2023-11-18T12:47:50;8.50;;;1.58;;
76953;SDS011;65893;51.698;-0.292;2023-11-18T12:50:19;13.93;;;1.17;;
76953;SDS011;65893;51.698;-0.292;2023-11-18T12:52:53;5.47;;;1.10;;
76953;SDS011;65893;51.698;-0.292;2023-11-18T12:55:22;6.05;;;1.15;;
76953;SDS011;65893;51.698;-0.292;2023-11-18T12:57:48;2.63;;;1.02;;
76953;SDS011;65893;51.698;-0.292;2023-11-18T13:00:16;5.30;;;1.05;;
76953;SDS011;65893;51.698;-0.292;2023-11-18T13:02:52;5.25;;;1.25;;
76953;SDS011;65893;51.698;-0.292;2023-11-18T13:05:18;2.58;;;0.85;;
76953;SDS011;65893;51.698;-0.292;2023-11-18T13:07:45;2.85;;;0.95;;
76953;SDS011;65893;51.698;-0.292;2023-11-18T13:10:16;3.40;;;0.90;;
76953;SDS011;65893;51.698;-0.292;2023-11-18T13:12:43;3.70;;;1.52;;
76953;SDS011;65893;51.698;-0.292;2023-11-18T13:15:10;3.63;;;0.93;;
76953;SDS011;65893;51.698;-0.292;2023-11-18T13:17:37;9.05;;;1.35;;
76953;SDS011;65893;51.698;-0.292;2023-11-18T13:20:12;3.92;;;1.38;;
76953;SDS011;65893;51.698;-0.292;2023-11-18T13:22:39;6.43;;;1.85;;
76953;SDS011;65893;51.698;-0.292;2023-11-18T13:25:05;9.05;;;1.48;;
76953;SDS011;65893;51.698;-0.292;2023-11-18T13:27:31;4.80;;;1.65;;
76953;SDS011;65893;51.698;-0.292;2023-11-18T13:29:58;7.28;;;1.33;;
76953;SDS011;65893;51.698;-0.292;2023-11-18T13:32:24;12.48;;;1.63;;
76953;SDS011;65893;51.698;-0.292;2023-11-18T13:34:51;4.88;;;1.25;;
76953;SDS011;65893;51.698;-0.292;2023-11-18T13:37:18;10.45;;;1.70;;
76953;SDS011;65893;51.698;-0.292;2023-11-18T13:39:56;9.68;;;1.38;;
76953;SDS011;65893;51.698;-0.292;2023-11-18T13:42:26;8.38;;;1.45;;
76953;SDS011;65893;51.698;-0.292;2023-11-18T13:44:53;5.40;;;1.08;;
76953;SDS011;65893;51.698;-0.292;2023-11-18T13:47:20;9.57;;;1.27;;
76953;SDS011;65893;51.698;-0.292;2023-11-18T13:49:53;3.67;;;1.27;;
76953;SDS011;65893;51.698;-0.292;2023-11-18T13:52:19;8.05;;;1.52;;
76953;SDS011;65893;51.698;-0.292;2023-11-18T13:54:49;7.38;;;1.35;;
76953;SDS011;65893;51.698;-0.292;2023-11-18T13:57:20;6.88;;;1.20;;
76953;SDS011;65893;51.698;-0.292;2023-11-18T13:59:50;11.27;;;2.38;;
76953;SDS011;65893;51.698;-0.292;2023-11-18T14:02:16;8.63;;;2.75;;
76953;SDS011;65893;51.698;-0.292;2023-11-18T14:04:43;6.03;;;2.70;;
76953;SDS011;65893;51.698;-0.292;2023-11-18T14:07:09;12.20;;;3.45;;
76953;SDS011;65893;51.698;-0.292;2023-11-18T14:09:37;14.13;;;3.05;;
76953;SDS011;65893;51.698;-0.292;2023-11-18T14:12:09;5.63;;;2.20;;
76953;SDS011;65893;51.698;-0.292;2023-11-18T14:14:36;9.55;;;2.03;;
76953;SDS011;65893;51.698;-0.292;2023-11-18T14:17:02;11.43;;;2.42;;
76953;SDS011;65893;51.698;-0.292;2023-11-18T14:19:31;7.70;;;1.67;;
76953;SDS011;65893;51.698;-0.292;2023-11-18T14:22:00;7.18;;;1.70;;
76953;SDS011;65893;51.698;-0.292;2023-11-18T14:24:29;11.23;;;1.50;;
76953;SDS011;65893;51.698;-0.292;2023-11-18T14:26:57;7.45;;;1.55;;
76953;SDS011;65893;51.698;-0.292;2023-11-18T14:29:23;10.57;;;2.33;;
76953;SDS011;65893;51.698;-0.292;2023-11-18T14:31:51;15.88;;;2.50;;
76953;SDS011;65893;51.698;-0.292;2023-11-18T14:34:18;11.43;;;2.35;;
76953;SDS011;65893;51.698;-0.292;2023-11-18T14:36:45;7.47;;;1.55;;
76953;SDS011;65893;51.698;-0.292;2023-11-18T14:39:12;6.15;;;1.83;;
76953;SDS011;65893;51.698;-0.292;2023-11-18T14:41:39;11.52;;;1.98;;
76953;SDS011;65893;51.698;-0.292;2023-11-18T14:44:05;5.82;;;1.65;;
76953;SDS011;65893;51.698;-0.292;2023-11-18T14:46:34;8.73;;;1.92;;
76953;SDS011;65893;51.698;-0.292;2023-11-18T14:49:02;6.38;;;1.55;;
76953;SDS011;65893;51.698;-0.292;2023-11-18T14:51:31;10.50;;;1.55;;
76953;SDS011;65893;51.698;-0.292;2023-11-18T14:53:57;8.18;;;2.00;;
76953;SDS011;65893;51.698;-0.292;2023-11-18T14:56:23;12.18;;;1.67;;
76953;SDS011;65893;51.698;-0.292;2023-11-18T14:58:49;6.95;;;1.50;;
76953;SDS011;65893;51.698;-0.292;2023-11-18T15:01:15;9.10;;;2.00;;
76953;SDS011;65893;51.698;-0.292;2023-11-18T15:03:43;9.90;;;2.00;;
76953;SDS011;65893;51.698;-0.292;2023-11-18T15:06:11;8.10;;;1.70;;
76953;SDS011;65893;51.698;-0.292;2023-11-18T15:08:37;9.75;;;1.63;;
76953;SDS011;65893;51.698;-0.292;2023-11-18T15:11:06;5.75;;;1.40;;
76953;SDS011;65893;51.698;-0.292;2023-11-18T15:13:32;6.97;;;1.35;;
76953;SDS011;65893;51.698;-0.292;2023-11-18T15:16:02;7.63;;;1.40;;
76953;SDS011;65893;51.698;-0.292;2023-11-18T15:18:29;12.73;;;2.05;;
76953;SDS011;65893;51.698;-0.292;2023-11-18T15:20:55;10.20;;;1.40;;